• Join FlightAware (Why Join?)
  • Login
  • US Flag 
04:21PM EST


 

Airport Tracker/Info


-or-


 

Live Flight TrackerFlight Track Log ✈ FIV521 ✈ 15-Apr-2013 ✈ KABE - KGSO

Flight Track Log - Related Links

Times and Time Zones

All times are in EDT time to prevent confusion due to time zone crossing. See the FIV521 flight status page for this flight to view local times or setup timezone preferences in your user account.

Time Position Orientation Groundspeed Altitude Reporting Facility
EDT Latitude Longitude Course Direction KTS MPH feet Rate Location/Type
03:02PM 40.6194 -75.5419 252° West 187 215 6,000  Level New York Center
03:03PM 40.5928 -75.6331 249° West 251 289 9,300 2,460 Climbing New York Center
03:04PM 40.5556 -75.7233 242° Southwest 276 318 11,000 1,500 Climbing New York Center
03:05PM 40.4897 -75.8058 224° Southwest 314 361 12,400 1,620 Climbing New York Center
03:07PM 40.4278 -75.8886 226° Southwest 347 399 14,400 1,800 Climbing New York Center
03:07PM 40.3481 -75.9917 225° Southwest 365 420 16,100 1,500 Climbing New York Center
03:09PM 40.2558 -76.0064 187° South 353 406 17,500 1,080 Climbing New York Center
03:09PM 40.1450 -76.0144 183° South 374 430 18,300 1,020 Climbing New York Center
03:11PM 40.0358 -76.0333 188° South 392 451 19,600 1,320 Climbing New York Center
03:12PM 39.9506 -76.1189 218° Southwest 377 434 21,100 1,380 Climbing New York Center
03:13PM 39.8647 -76.2181 222° Southwest 397 457 22,500 1,440 Climbing New York Center
03:13PM 39.7811 -76.3114 221° Southwest 402 463 24,000 1,680 Climbing New York Center
03:15PM 39.6858 -76.4111 219° Southwest 385 443 25,900 1,620 Climbing Washington Center
03:16PM 39.5997 -76.5019 219° Southwest 385 443 27,400 1,440 Climbing Washington Center
03:17PM 39.5114 -76.5975 220° Southwest 398 458 28,900 1,260 Climbing Washington Center
03:18PM 39.4231 -76.6931 220° Southwest 404 465 30,000 540 Climbing Washington Center
03:19PM 39.3347 -76.7856 219° Southwest 411 473 30,000  Level Washington Center
03:20PM 39.2442 -76.8806 219° Southwest 417 480 30,000  Level Washington Center
03:21PM 39.1556 -76.9728 219° Southwest 422 486 30,000  Level Washington Center
03:22PM 39.0669 -77.0672 220° Southwest 422 486 30,000  Level Washington Center
03:23PM 38.9783 -77.1589 219° Southwest 422 486 30,000  Level Washington Center
03:24PM 38.8894 -77.2506 219° Southwest 422 486 30,000  Level Washington Center
03:25PM 38.8006 -77.3444 219° Southwest 422 486 30,000  Level Washington Center
03:26PM 38.7094 -77.4381 219° Southwest 422 486 30,000  Level Washington Center
03:27PM 38.6311 -77.5211 220° Southwest 422 486 30,000  Level Washington Center
03:28PM 38.5419 -77.6117 218° Southwest 422 486 30,000  Level Washington Center
03:29PM 38.4508 -77.7047 219° Southwest 422 486 30,000  Level Washington Center
03:30PM 38.3636 -77.7950 219° Southwest 422 486 30,000  Level Washington Center
03:31PM 38.2764 -77.8875 220° Southwest 422 486 30,000  Level Washington Center
03:32PM 38.1872 -77.9772 218° Southwest 422 486 30,000  Level Washington Center
03:33PM 38.1100 -78.0831 227° Southwest 409 471 30,000  Level Washington Center
03:34PM 38.0347 -78.1858 227° Southwest 409 471 30,000  Level Washington Center
03:35PM 37.9550 -78.3017 229° Southwest 403 464 30,000  Level Washington Center
03:36PM 37.8883 -78.3939 228° Southwest 403 464 30,000 -360 Level Washington Center
03:37PM 37.8128 -78.4964 227° Southwest 403 464 29,300 -900 Descending Washington Center
03:38PM 37.7350 -78.6011 227° Southwest 408 470 28,300 -1,320 Descending Washington Center
03:39PM 37.6553 -78.7056 226° Southwest 413 475 26,700 -1,560 Descending Washington Center
03:40PM 37.5775 -78.8097 227° Southwest 413 475 25,200 -1,680 Descending Washington Center
03:41PM 37.4908 -78.9264 227° Southwest 418 481 23,400 -1,560 Descending Washington Center
03:42PM 37.4106 -79.0303 226° Southwest 418 481 22,200 -840 Descending Washington Center
03:43PM 37.3325 -79.1336 226° Southwest 412 474 21,800 -900 Descending Washington Center
03:44PM 37.2586 -79.2294 226° Southwest 407 468 20,500 -1,200 Descending Washington Center
03:45PM 37.1889 -79.3331 230° Southwest 407 468 19,400 -1,140 Descending Washington Center
03:46PM 37.1167 -79.4364 229° Southwest 401 461 18,300 -720 Descending Washington Center
03:47PM 37.0572 -79.5297 231° Southwest 401 461 18,000 -240 Descending Washington Center
03:48PM 36.9872 -79.6328 230° Southwest 395 455 17,900 -780 Descending Washington Center
03:49PM 36.9189 -79.7331 230° Southwest 390 449 16,500 -1,440 Descending Washington Center
03:51PM 36.7714 -79.9327 227° Southwest  Level FlightAware Approximate
03:58PM 36.1013 -79.9411 180° South  Level Estimated
03:59PM 36.1000 -79.9333 15° North  Level FlightAware Approximate
04:00PM 36.1013 -79.9411 15° North  Level Estimated
04:01PM 36.1000 -79.9333 15° North  Level FlightAware Approximate
04:02PM 36.1013 -79.9411 15° North  Level Estimated
04:03PM 36.1000 -79.9333 15° North  Level FlightAware Approximate
04:04PM 36.1013 -79.9411 15° North  Level Estimated
04:05PM 36.1000 -79.9333 15° North  Level FlightAware Approximate